createdAt,value
2017-09-06T00:00:21.399Z,0
2017-09-06T00:01:22.999Z,0
2017-09-06T00:02:26.164Z,0
2017-09-06T00:03:29.157Z,0
2017-09-06T00:04:31.783Z,0
2017-09-06T00:05:33.650Z,0
2017-09-06T00:06:36.974Z,0
2017-09-06T00:07:40.294Z,0
2017-09-06T00:08:42.427Z,0
2017-09-06T00:09:44.731Z,0
2017-09-06T00:10:47.586Z,0
2017-09-06T00:11:50.283Z,0
2017-09-06T00:12:52.226Z,0
2017-09-06T00:13:54.378Z,0
2017-09-06T00:14:55.964Z,0
2017-09-06T00:15:57.598Z,0
2017-09-06T00:16:59.298Z,0
2017-09-06T00:18:00.909Z,0
2017-09-06T00:19:02.526Z,0
2017-09-06T00:20:06.113Z,0
2017-09-06T00:21:07.964Z,0
2017-09-06T00:22:10.071Z,0
2017-09-06T00:23:11.686Z,0
2017-09-06T00:24:13.705Z,0
2017-09-06T00:25:15.776Z,0
2017-09-06T00:26:17.539Z,0
2017-09-06T00:27:19.851Z,0
2017-09-06T00:28:21.922Z,0
2017-09-06T00:29:23.624Z,0
2017-09-06T00:30:25.241Z,0
2017-09-06T00:31:26.878Z,0
2017-09-06T00:32:29.332Z,0
2017-09-06T00:33:32.609Z,0
2017-09-06T00:34:35.307Z,0
2017-09-06T00:35:36.940Z,0
2017-09-06T00:36:38.545Z,0
2017-09-06T00:37:40.534Z,0
2017-09-06T00:38:42.153Z,0
2017-09-06T00:39:43.769Z,0
2017-09-06T00:40:47.998Z,0
2017-09-06T00:41:50.376Z,0
2017-09-06T00:42:53.199Z,0
2017-09-06T00:43:54.808Z,0
2017-09-06T00:44:56.415Z,0
2017-09-06T00:45:58.026Z,0
2017-09-06T00:46:59.647Z,0
2017-09-06T00:48:01.258Z,0
2017-09-06T00:49:02.874Z,0
2017-09-06T00:50:04.489Z,0
2017-09-06T00:51:06.099Z,0
2017-09-06T00:52:07.714Z,0
2017-09-06T00:53:09.323Z,0
2017-09-06T00:54:10.942Z,0
2017-09-06T00:55:12.559Z,0
2017-09-06T00:56:14.167Z,0
2017-09-06T00:57:15.784Z,0
2017-09-06T00:58:17.398Z,0
2017-09-06T00:59:19.007Z,0
2017-09-06T01:00:20.616Z,0
2017-09-06T01:01:22.236Z,0
2017-09-06T01:02:23.853Z,0
2017-09-06T01:03:25.465Z,0
2017-09-06T01:04:27.073Z,0
2017-09-06T01:05:28.690Z,0
2017-09-06T01:06:30.305Z,0
2017-09-06T01:07:31.915Z,0
2017-09-06T01:08:33.533Z,0
2017-09-06T01:09:35.145Z,0
2017-09-06T01:10:36.759Z,0
2017-09-06T01:11:38.374Z,0
2017-09-06T01:12:39.989Z,0
2017-09-06T01:13:41.600Z,0
2017-09-06T01:14:43.215Z,0
2017-09-06T01:15:44.825Z,0
2017-09-06T01:16:46.439Z,0
2017-09-06T01:17:48.054Z,0
2017-09-06T01:18:49.669Z,0
2017-09-06T01:19:51.278Z,0
2017-09-06T01:20:52.894Z,0
2017-09-06T01:21:54.504Z,0
2017-09-06T01:22:56.118Z,0
2017-09-06T01:23:57.736Z,0
2017-09-06T01:24:59.348Z,0
2017-09-06T01:26:00.963Z,0
2017-09-06T01:27:02.580Z,0
2017-09-06T01:28:04.190Z,0
2017-09-06T01:29:05.811Z,0
2017-09-06T01:30:07.424Z,0
2017-09-06T01:31:09.037Z,0
2017-09-06T01:32:10.657Z,0
2017-09-06T01:33:12.271Z,0
2017-09-06T01:34:13.878Z,0
2017-09-06T01:35:15.492Z,0
2017-09-06T01:36:17.110Z,0
2017-09-06T01:37:18.728Z,0
2017-09-06T01:38:20.340Z,0
2017-09-06T01:39:21.950Z,0
2017-09-06T01:40:23.565Z,0
2017-09-06T01:41:25.176Z,0
2017-09-06T01:42:26.792Z,0
2017-09-06T01:43:28.409Z,0
2017-09-06T01:44:30.035Z,0
2017-09-06T01:45:31.663Z,0
2017-09-06T01:46:33.276Z,0
2017-09-06T01:47:34.906Z,0
2017-09-06T01:48:36.528Z,0
2017-09-06T01:49:38.140Z,0
2017-09-06T01:50:39.771Z,0
2017-09-06T01:51:41.393Z,0
2017-09-06T01:52:43.010Z,0
2017-09-06T01:53:44.640Z,0
2017-09-06T01:54:46.267Z,0
2017-09-06T01:55:47.897Z,0
2017-09-06T01:56:49.525Z,0
2017-09-06T01:57:51.153Z,0
2017-09-06T01:58:52.781Z,0
2017-09-06T01:59:54.410Z,0
2017-09-06T02:00:56.038Z,0
2017-09-06T02:01:57.665Z,0
2017-09-06T02:02:59.294Z,0
2017-09-06T02:04:00.923Z,0
2017-09-06T02:05:02.549Z,0
2017-09-06T02:06:04.178Z,0
2017-09-06T02:07:05.811Z,0
2017-09-06T02:08:07.434Z,0
2017-09-06T02:09:09.062Z,0
2017-09-06T02:10:10.677Z,0
2017-09-06T02:11:12.299Z,0
2017-09-06T02:12:13.928Z,0
2017-09-06T02:13:15.544Z,0
2017-09-06T02:14:17.160Z,0
2017-09-06T02:15:18.788Z,0
2017-09-06T02:16:20.411Z,0
2017-09-06T02:17:22.026Z,0
2017-09-06T02:18:23.642Z,0
2017-09-06T02:19:25.268Z,0
2017-09-06T02:20:26.894Z,0
2017-09-06T02:21:28.511Z,0
2017-09-06T02:22:30.127Z,0
2017-09-06T02:23:31.752Z,0
2017-09-06T02:24:33.379Z,0
2017-09-06T02:25:35.006Z,0
2017-09-06T02:26:36.637Z,0
2017-09-06T02:27:38.268Z,0
2017-09-06T02:28:39.897Z,0
2017-09-06T02:29:41.524Z,0
2017-09-06T02:30:43.151Z,0
2017-09-06T02:31:44.779Z,0
2017-09-06T02:32:46.404Z,0
2017-09-06T02:34:57.492Z,0
2017-09-06T02:35:59.118Z,0
2017-09-06T02:37:50.860Z,0
2017-09-06T02:38:52.487Z,0
2017-09-06T02:40:44.180Z,0
2017-09-06T02:41:45.795Z,0
2017-09-06T02:43:38.381Z,0
2017-09-06T02:44:39.998Z,0
2017-09-06T02:46:31.695Z,0
2017-09-06T02:47:33.309Z,0
2017-09-06T02:49:25.040Z,0
2017-09-06T02:50:26.660Z,0
2017-09-06T02:52:18.359Z,0
2017-09-06T02:53:19.978Z,0
2017-09-06T02:55:11.708Z,0
2017-09-06T02:56:13.321Z,0
2017-09-06T02:58:05.016Z,0
2017-09-06T02:59:06.632Z,0
2017-09-06T03:00:58.359Z,0
2017-09-06T03:01:59.985Z,0
2017-09-06T03:03:51.681Z,0
2017-09-06T03:04:53.308Z,0
2017-09-06T03:06:45.027Z,0
2017-09-06T03:07:46.641Z,0
2017-09-06T03:09:38.338Z,0
2017-09-06T03:10:39.963Z,0
2017-09-06T03:12:31.680Z,0
2017-09-06T03:13:33.293Z,0
2017-09-06T03:15:24.990Z,0
2017-09-06T03:16:26.617Z,0
2017-09-06T03:18:18.346Z,0
2017-09-06T03:19:19.964Z,0
2017-09-06T03:21:11.657Z,0
2017-09-06T03:22:13.287Z,0
2017-09-06T03:24:05.869Z,0
2017-09-06T03:25:07.485Z,0
2017-09-06T03:26:59.182Z,0
2017-09-06T03:28:00.796Z,0
2017-09-06T03:29:52.520Z,0
2017-09-06T03:30:54.134Z,0
2017-09-06T03:32:45.827Z,0
2017-09-06T03:33:47.451Z,0
2017-09-06T03:35:39.154Z,0
2017-09-06T03:36:40.781Z,0
2017-09-06T03:38:32.482Z,0
2017-09-06T03:39:34.093Z,0
2017-09-06T03:41:25.832Z,0
2017-09-06T03:42:27.450Z,0
2017-09-06T03:44:19.137Z,0
2017-09-06T03:45:20.748Z,0
2017-09-06T03:47:12.470Z,0
2017-09-06T03:48:14.093Z,0
2017-09-06T03:50:05.804Z,0
2017-09-06T03:51:07.417Z,0
2017-09-06T03:52:59.130Z,0
2017-09-06T03:54:00.752Z,0
2017-09-06T03:55:52.453Z,0
2017-09-06T03:56:54.065Z,0
2017-09-06T03:58:45.792Z,0
2017-09-06T03:59:47.418Z,0
2017-09-06T04:01:39.973Z,0
2017-09-06T04:02:41.600Z,0
2017-09-06T04:04:34.180Z,0
2017-09-06T04:05:35.792Z,0
2017-09-06T04:07:27.484Z,0
2017-09-06T04:08:29.097Z,0
2017-09-06T04:10:20.832Z,0
2017-09-06T04:11:22.444Z,0
2017-09-06T04:13:14.150Z,0
2017-09-06T04:14:15.770Z,0
2017-09-06T04:16:07.497Z,0
2017-09-06T04:17:09.117Z,0
2017-09-06T04:19:00.813Z,0
2017-09-06T04:20:02.431Z,0
2017-09-06T04:21:54.151Z,0
2017-09-06T04:22:55.777Z,0
2017-09-06T04:24:48.313Z,0
2017-09-06T04:25:49.927Z,0
2017-09-06T04:27:41.647Z,0
2017-09-06T04:28:43.259Z,4
2017-09-06T04:30:34.952Z,4
2017-09-06T04:31:36.577Z,8
2017-09-06T04:33:28.302Z,8
2017-09-06T04:34:29.915Z,12
2017-09-06T04:36:21.614Z,12
2017-09-06T04:37:23.228Z,16
2017-09-06T04:39:14.946Z,12
2017-09-06T04:40:16.564Z,16
2017-09-06T04:42:08.259Z,12
2017-09-06T04:43:09.876Z,16
2017-09-06T04:45:01.602Z,12
2017-09-06T04:46:03.212Z,16
2017-09-06T04:47:54.908Z,16
2017-09-06T04:48:56.536Z,16
2017-09-06T04:50:48.261Z,16
2017-09-06T04:51:49.872Z,28
2017-09-06T04:53:41.573Z,32
2017-09-06T04:54:43.199Z,36
2017-09-06T04:56:34.931Z,40
2017-09-06T04:57:36.558Z,48
2017-09-06T04:59:28.263Z,88
2017-09-06T05:00:29.884Z,128
2017-09-06T05:02:21.600Z,152
2017-09-06T05:03:23.228Z,160
2017-09-06T05:05:14.922Z,220
2017-09-06T05:06:16.552Z,220
2017-09-06T05:08:08.271Z,184
2017-09-06T05:09:09.888Z,180
2017-09-06T05:11:01.590Z,104
2017-09-06T05:12:03.218Z,168
2017-09-06T05:13:54.935Z,224
2017-09-06T05:14:56.554Z,264
2017-09-06T05:16:48.253Z,260
2017-09-06T05:17:49.880Z,344
2017-09-06T05:19:41.609Z,208
2017-09-06T05:20:43.227Z,296
2017-09-06T05:22:35.011Z,432
2017-09-06T05:23:36.626Z,508
2017-09-06T05:24:38.333Z,396
2017-09-06T05:25:39.959Z,492
2017-09-06T05:26:41.592Z,392
2017-09-06T05:27:43.208Z,496
2017-09-06T05:28:44.827Z,540
2017-09-06T05:29:46.460Z,628
2017-09-06T05:30:48.084Z,836
2017-09-06T05:31:49.700Z,816
2017-09-06T05:32:51.316Z,668
2017-09-06T05:33:52.948Z,676
2017-09-06T05:34:54.566Z,588
2017-09-06T05:35:56.191Z,520
2017-09-06T05:36:57.821Z,388
2017-09-06T05:37:59.434Z,396
2017-09-06T05:39:01.059Z,480
2017-09-06T05:40:02.679Z,792
2017-09-06T05:41:04.298Z,992
2017-09-06T05:42:05.930Z,1308
2017-09-06T05:43:07.551Z,1740
2017-09-06T05:44:09.187Z,1736
2017-09-06T05:45:10.820Z,1648
2017-09-06T05:46:12.442Z,1372
2017-09-06T05:47:14.063Z,1100
2017-09-06T05:48:15.688Z,748
2017-09-06T05:49:17.358Z,760
2017-09-06T05:50:26.814Z,1000
2017-09-06T05:51:37.491Z,1244
2017-09-06T05:52:47.362Z,1204
2017-09-06T05:53:48.943Z,724
2017-09-06T05:54:50.570Z,784
2017-09-06T05:55:52.191Z,780
2017-09-06T05:56:53.825Z,1024
2017-09-06T05:57:55.456Z,1436
2017-09-06T05:58:57.078Z,1700
2017-09-06T05:59:58.699Z,2016
2017-09-06T06:01:00.327Z,1724
2017-09-06T06:02:01.997Z,1240
2017-09-06T06:03:03.614Z,968
2017-09-06T06:04:05.237Z,512
2017-09-06T06:05:06.868Z,500
2017-09-06T06:06:08.492Z,548
2017-09-06T06:07:10.108Z,444
2017-09-06T06:08:11.842Z,476
2017-09-06T06:09:13.466Z,612
2017-09-06T06:10:15.082Z,532
2017-09-06T06:11:16.704Z,484
2017-09-06T06:12:18.331Z,500
2017-09-06T06:13:19.966Z,580
2017-09-06T06:14:21.583Z,940
2017-09-06T06:15:23.204Z,856
2017-09-06T06:16:24.828Z,768
2017-09-06T06:17:26.457Z,864
2017-09-06T06:18:28.075Z,1048
2017-09-06T06:19:29.699Z,1480
2017-09-06T06:20:31.342Z,1716
2017-09-06T06:21:32.970Z,1372
2017-09-06T06:22:34.586Z,960
2017-09-06T06:23:36.209Z,1164
2017-09-06T06:24:37.829Z,2216
2017-09-06T06:25:39.453Z,1912
2017-09-06T06:26:41.085Z,1636
2017-09-06T06:27:42.722Z,1596
2017-09-06T06:28:44.343Z,2260
2017-09-06T06:29:45.966Z,2224
2017-09-06T06:30:47.598Z,2100
2017-09-06T06:31:49.224Z,1680
2017-09-06T06:32:50.860Z,1044
2017-09-06T06:33:52.483Z,868
2017-09-06T06:34:54.104Z,1048
2017-09-06T06:35:55.723Z,776
2017-09-06T06:36:57.345Z,860
2017-09-06T06:37:58.976Z,1048
2017-09-06T06:39:00.596Z,1396
2017-09-06T06:40:02.222Z,1832
2017-09-06T06:41:03.846Z,2416
2017-09-06T06:42:05.470Z,2812
2017-09-06T06:43:07.103Z,3432
2017-09-06T06:44:08.728Z,3216
2017-09-06T06:45:10.348Z,2684
2017-09-06T06:46:11.971Z,2296
2017-09-06T06:47:13.599Z,1784
2017-09-06T06:48:15.232Z,1800
2017-09-06T06:49:16.854Z,2076
2017-09-06T06:50:18.482Z,1844
2017-09-06T06:51:20.104Z,2880
2017-09-06T06:52:21.726Z,2524
2017-09-06T06:53:23.351Z,3204
2017-09-06T06:54:24.972Z,2520
2017-09-06T06:55:26.610Z,3380
2017-09-06T06:56:28.240Z,2816
2017-09-06T06:57:29.872Z,2348
2017-09-06T06:58:31.506Z,2920
2017-09-06T06:59:33.122Z,3140
2017-09-06T07:00:34.757Z,3628
2017-09-06T07:01:36.392Z,3052
2017-09-06T07:02:38.017Z,2716
2017-09-06T07:03:39.673Z,2980
2017-09-06T07:04:41.263Z,2492
2017-09-06T07:05:42.886Z,1984
2017-09-06T07:06:44.505Z,1672
2017-09-06T07:07:46.139Z,1140
2017-09-06T07:08:47.757Z,1220
2017-09-06T07:09:49.378Z,1060
2017-09-06T07:10:51.001Z,940
2017-09-06T07:11:52.627Z,1136
2017-09-06T07:12:54.259Z,1796
2017-09-06T07:13:55.884Z,1840
2017-09-06T07:14:57.506Z,2184
2017-09-06T07:15:59.142Z,1664
2017-09-06T07:17:00.768Z,1896
2017-09-06T07:18:02.388Z,1548
2017-09-06T07:19:04.011Z,1388
2017-09-06T07:20:05.641Z,2196
2017-09-06T07:21:07.274Z,2304
2017-09-06T07:22:08.887Z,1640
2017-09-06T07:23:10.512Z,1884
2017-09-06T07:24:12.143Z,1924
2017-09-06T07:25:13.779Z,2928
2017-09-06T07:26:15.401Z,2600
2017-09-06T07:27:17.036Z,2264
2017-09-06T07:28:18.668Z,1776
2017-09-06T07:29:20.301Z,2292
2017-09-06T07:30:21.933Z,2220
2017-09-06T07:31:23.567Z,2352
2017-09-06T07:32:25.201Z,2624
2017-09-06T07:33:26.832Z,2612
2017-09-06T07:34:28.465Z,1956
2017-09-06T07:35:30.097Z,2980
2017-09-06T07:36:31.732Z,2240
2017-09-06T07:37:33.365Z,2684
2017-09-06T07:38:34.998Z,2324
2017-09-06T07:39:36.633Z,2848
2017-09-06T07:40:38.264Z,2724
2017-09-06T07:41:39.895Z,2764
2017-09-06T07:42:41.528Z,3740
2017-09-06T07:43:43.161Z,2708
2017-09-06T07:44:44.797Z,2796
2017-09-06T07:45:46.432Z,2976
2017-09-06T07:46:48.063Z,3028
2017-09-06T07:47:49.695Z,3660
2017-09-06T07:48:51.327Z,3644
2017-09-06T07:49:52.959Z,3588
2017-09-06T07:50:54.593Z,2288
2017-09-06T07:51:56.224Z,2016
2017-09-06T07:52:57.860Z,2076
2017-09-06T07:53:59.494Z,1632
2017-09-06T07:55:01.129Z,1340
2017-09-06T07:56:02.782Z,2324
2017-09-06T07:57:04.416Z,2136
2017-09-06T07:58:06.049Z,1952
2017-09-06T07:59:07.683Z,1000
2017-09-06T08:00:09.319Z,800
2017-09-06T08:01:10.954Z,956
2017-09-06T08:02:12.585Z,872
2017-09-06T08:03:14.216Z,920
2017-09-06T08:04:15.849Z,760
2017-09-06T08:05:17.482Z,700
2017-09-06T08:06:19.115Z,676
2017-09-06T08:07:20.747Z,956
2017-09-06T08:08:22.383Z,784
2017-09-06T08:09:24.015Z,800
2017-09-06T08:10:25.648Z,652
2017-09-06T08:11:27.278Z,580
2017-09-06T08:12:28.910Z,1088
2017-09-06T08:13:30.543Z,1804
2017-09-06T08:14:32.183Z,2968
2017-09-06T08:15:33.819Z,2164
2017-09-06T08:16:35.452Z,2256
2017-09-06T08:17:37.085Z,3024
2017-09-06T08:18:38.723Z,3380
2017-09-06T08:19:40.358Z,2724
2017-09-06T08:20:41.989Z,2796
2017-09-06T08:21:43.623Z,2220
2017-09-06T08:22:45.258Z,3144
2017-09-06T08:23:46.888Z,1676
2017-09-06T08:24:48.521Z,2044
2017-09-06T08:25:50.152Z,1684
2017-09-06T08:26:51.788Z,1528
2017-09-06T08:27:53.418Z,1376
2017-09-06T08:28:55.052Z,1148
2017-09-06T08:29:56.686Z,1424
2017-09-06T08:30:58.320Z,1768
2017-09-06T08:31:59.988Z,1944
2017-09-06T08:33:01.604Z,3928
2017-09-06T08:34:03.236Z,3184
2017-09-06T08:35:04.872Z,4284
2017-09-06T08:36:06.500Z,4024
2017-09-06T08:37:08.137Z,4056
2017-09-06T08:38:09.767Z,4032
2017-09-06T08:39:11.400Z,4376
2017-09-06T08:40:13.031Z,4536
2017-09-06T08:41:14.665Z,4196
2017-09-06T08:42:16.301Z,3536
2017-09-06T08:43:17.932Z,3372
2017-09-06T08:44:19.568Z,2392
2017-09-06T08:45:21.197Z,3132
2017-09-06T08:46:22.829Z,3100
2017-09-06T08:47:24.464Z,3164
2017-09-06T08:48:26.094Z,3128
2017-09-06T08:49:27.730Z,2760
2017-09-06T08:50:29.363Z,2756
2017-09-06T08:51:30.995Z,2340
2017-09-06T08:52:32.627Z,2320
2017-09-06T08:53:34.259Z,2088
2017-09-06T08:54:35.892Z,1784
2017-09-06T08:55:37.527Z,1924
2017-09-06T08:56:39.159Z,1820
2017-09-06T08:57:40.796Z,1820
2017-09-06T08:58:42.508Z,1692
2017-09-06T08:59:44.139Z,1488
2017-09-06T09:00:45.769Z,1492
2017-09-06T09:01:47.397Z,1380
2017-09-06T09:02:49.028Z,1228
2017-09-06T09:03:50.662Z,1204
2017-09-06T09:04:52.293Z,1124
2017-09-06T09:05:53.925Z,972
2017-09-06T09:06:55.558Z,996
2017-09-06T09:07:57.189Z,1064
2017-09-06T09:08:58.823Z,1416
2017-09-06T09:10:00.456Z,1400
2017-09-06T09:11:02.093Z,1484
2017-09-06T09:12:03.729Z,1624
2017-09-06T09:13:05.361Z,2192
2017-09-06T09:14:06.992Z,2028
2017-09-06T09:15:08.623Z,1784
2017-09-06T09:16:10.267Z,3344
2017-09-06T09:17:11.900Z,3868
2017-09-06T09:18:13.534Z,4940
2017-09-06T09:19:15.166Z,5344
2017-09-06T09:20:16.801Z,4804
2017-09-06T09:21:18.434Z,3056
2017-09-06T09:22:20.066Z,2036
2017-09-06T09:23:21.697Z,2708
2017-09-06T09:24:23.334Z,4808
2017-09-06T09:25:24.966Z,9420
2017-09-06T09:26:26.603Z,7372
2017-09-06T09:27:28.237Z,6484
2017-09-06T09:28:29.864Z,14052
2017-09-06T09:29:31.498Z,31232
2017-09-06T09:30:33.137Z,36896
2017-09-06T09:31:34.771Z,17184
2017-09-06T09:32:36.405Z,13052
2017-09-06T09:33:38.039Z,15760
2017-09-06T09:34:39.674Z,14812
2017-09-06T09:35:41.306Z,13364
2017-09-06T09:36:42.944Z,9960
2017-09-06T09:37:44.569Z,8572
2017-09-06T09:38:46.204Z,7372
2017-09-06T09:39:47.836Z,6904
2017-09-06T09:40:49.470Z,6004
2017-09-06T09:41:51.103Z,5420
2017-09-06T09:42:52.733Z,4680
2017-09-06T09:43:54.364Z,4096
2017-09-06T09:44:55.997Z,4400
2017-09-06T09:45:57.627Z,4612
2017-09-06T09:46:59.268Z,4532
2017-09-06T09:48:00.896Z,4412
2017-09-06T09:49:02.528Z,4468
2017-09-06T09:50:04.161Z,4260
2017-09-06T09:51:05.790Z,4240
2017-09-06T09:52:07.422Z,4588
2017-09-06T09:53:09.054Z,6452
2017-09-06T09:54:10.687Z,7492
2017-09-06T09:55:12.321Z,10260
2017-09-06T09:56:13.957Z,11752
2017-09-06T09:57:15.591Z,11832
2017-09-06T09:58:17.222Z,13420
2017-09-06T09:59:18.861Z,20960
2017-09-06T10:00:20.496Z,36576
2017-09-06T10:01:22.131Z,216256
2017-09-06T10:02:23.769Z,240576
2017-09-06T10:03:25.407Z,203840
2017-09-06T10:04:27.057Z,54112
2017-09-06T10:05:28.693Z,188800
2017-09-06T10:06:30.333Z,36896
2017-09-06T10:07:31.973Z,29568
2017-09-06T10:08:33.613Z,30816
2017-09-06T10:09:35.253Z,23488
2017-09-06T10:10:36.890Z,16672
2017-09-06T10:11:38.528Z,28224
2017-09-06T10:12:40.171Z,69600
2017-09-06T10:13:41.807Z,109344
2017-09-06T10:14:43.447Z,81280
2017-09-06T10:15:45.082Z,86144
2017-09-06T10:16:46.725Z,36000
2017-09-06T10:17:48.365Z,63360
2017-09-06T10:18:50.006Z,26592
2017-09-06T10:19:51.645Z,17888
2017-09-06T10:20:53.284Z,20864
2017-09-06T10:21:54.927Z,120640
2017-09-06T10:22:56.566Z,197152
2017-09-06T10:23:58.208Z,220224
2017-09-06T10:24:59.853Z,212672
2017-09-06T10:26:01.492Z,166624
2017-09-06T10:27:03.130Z,69344
2017-09-06T10:28:04.771Z,52736
2017-09-06T10:29:06.412Z,40736
2017-09-06T10:30:08.058Z,100224
2017-09-06T10:31:09.714Z,15068
2017-09-06T10:32:11.357Z,41280
2017-09-06T10:33:12.998Z,107520
2017-09-06T10:34:14.640Z,14332
2017-09-06T10:35:16.279Z,10340
2017-09-06T10:36:17.919Z,7224
2017-09-06T10:37:19.557Z,5980
2017-09-06T10:38:21.199Z,4844
2017-09-06T10:39:22.838Z,3584
2017-09-06T10:40:24.478Z,3768
2017-09-06T10:41:26.116Z,5108
2017-09-06T10:42:27.755Z,4976
2017-09-06T10:43:29.386Z,5316
2017-09-06T10:44:31.026Z,6740
2017-09-06T10:45:32.652Z,13972
2017-09-06T10:46:34.283Z,12056
2017-09-06T10:47:35.919Z,10552
2017-09-06T10:48:37.550Z,7944
2017-09-06T10:49:39.173Z,5564
2017-09-06T10:50:40.799Z,4328
2017-09-06T10:51:42.429Z,4976
2017-09-06T10:52:44.066Z,6912
2017-09-06T10:53:45.691Z,9688
2017-09-06T10:54:47.320Z,31264
2017-09-06T10:55:48.950Z,36800
2017-09-06T10:56:50.580Z,27392
2017-09-06T10:57:52.212Z,38912
2017-09-06T10:58:53.851Z,21376
2017-09-06T10:59:55.484Z,28736
2017-09-06T11:00:57.107Z,36256
2017-09-06T11:01:58.747Z,13460
2017-09-06T11:03:00.378Z,14856
2017-09-06T11:04:02.002Z,17152
2017-09-06T11:05:03.634Z,33216
2017-09-06T11:06:05.266Z,30848
2017-09-06T11:07:06.907Z,13532
2017-09-06T11:08:08.538Z,18624
2017-09-06T11:09:10.163Z,17056
2017-09-06T11:10:11.807Z,13720
2017-09-06T11:11:13.438Z,10656
2017-09-06T11:12:15.065Z,20960
2017-09-06T11:13:16.692Z,13876
2017-09-06T11:14:18.337Z,10828
2017-09-06T11:15:19.964Z,10280
2017-09-06T11:16:21.586Z,12704
2017-09-06T11:17:23.212Z,9612
2017-09-06T11:18:24.843Z,5908
2017-09-06T11:19:26.481Z,4052
2017-09-06T11:20:28.111Z,3640
2017-09-06T11:21:29.734Z,3548
2017-09-06T11:22:31.383Z,4164
2017-09-06T11:23:33.000Z,19456
2017-09-06T11:24:34.623Z,8548
2017-09-06T11:25:36.247Z,5344
2017-09-06T11:26:37.878Z,5968
2017-09-06T11:27:39.516Z,12980
2017-09-06T11:28:41.151Z,10988
2017-09-06T11:29:42.788Z,6064
2017-09-06T11:30:44.409Z,6832
2017-09-06T11:31:46.045Z,11140
2017-09-06T11:32:47.682Z,8984
2017-09-06T11:33:49.311Z,12424
2017-09-06T11:34:50.936Z,54016
2017-09-06T11:35:52.565Z,58080
2017-09-06T11:36:54.193Z,30752
2017-09-06T11:37:55.819Z,12376
2017-09-06T11:38:57.448Z,9136
2017-09-06T11:39:59.082Z,12036
2017-09-06T11:41:00.715Z,60576
2017-09-06T11:42:02.340Z,17664
2017-09-06T11:43:03.983Z,15200
2017-09-06T11:44:05.614Z,15020
2017-09-06T11:45:07.241Z,92128
2017-09-06T11:46:08.868Z,106848
2017-09-06T11:47:10.508Z,118880
2017-09-06T11:48:12.137Z,118976
2017-09-06T11:49:13.761Z,63712
2017-09-06T11:50:15.393Z,24224
2017-09-06T11:51:17.025Z,14228
2017-09-06T11:52:18.665Z,11724
2017-09-06T11:53:20.299Z,12220
2017-09-06T11:54:21.928Z,12284
2017-09-06T11:55:23.550Z,12416
2017-09-06T11:56:25.179Z,13620
2017-09-06T11:57:26.813Z,15696
2017-09-06T11:58:28.452Z,70208
2017-09-06T11:59:30.075Z,19776
2017-09-06T12:00:31.703Z,20928
2017-09-06T12:01:33.329Z,21600
2017-09-06T12:02:34.960Z,55424
2017-09-06T12:03:36.592Z,44544
2017-09-06T12:04:38.230Z,35424
2017-09-06T12:05:39.859Z,37408
2017-09-06T12:06:41.486Z,26688
2017-09-06T12:07:43.123Z,33920
2017-09-06T12:08:44.752Z,18752
2017-09-06T12:09:46.389Z,37632
2017-09-06T12:10:48.021Z,20800
2017-09-06T12:11:49.644Z,14788
2017-09-06T12:12:51.282Z,13960
2017-09-06T12:13:52.917Z,12172
2017-09-06T12:14:54.546Z,11332
2017-09-06T12:15:56.171Z,15404
2017-09-06T12:16:57.797Z,13324
2017-09-06T12:17:59.436Z,12524
2017-09-06T12:19:01.065Z,11908
2017-09-06T12:20:02.696Z,14580
2017-09-06T12:21:04.326Z,17056
2017-09-06T12:22:05.957Z,61376
2017-09-06T12:23:07.593Z,58784
2017-09-06T12:24:09.220Z,54048
2017-09-06T12:25:10.851Z,51392
2017-09-06T12:26:12.480Z,50080
2017-09-06T12:27:14.110Z,45440
2017-09-06T12:28:15.746Z,27296
2017-09-06T12:29:17.369Z,15392
2017-09-06T12:30:18.992Z,10972
2017-09-06T12:31:20.618Z,7880
2017-09-06T12:32:22.252Z,5680
2017-09-06T12:33:23.886Z,4404
2017-09-06T12:34:25.516Z,4116
2017-09-06T12:35:27.150Z,3940
2017-09-06T12:36:28.771Z,4552
2017-09-06T12:37:30.410Z,4640
2017-09-06T12:38:32.047Z,4468
2017-09-06T12:39:33.675Z,4312
2017-09-06T12:40:35.302Z,4016
2017-09-06T12:41:36.930Z,7328
2017-09-06T12:42:38.552Z,15820
2017-09-06T12:43:40.178Z,19904
2017-09-06T12:44:41.810Z,16488
2017-09-06T12:45:43.445Z,15848
2017-09-06T12:46:45.073Z,15040
2017-09-06T12:47:46.704Z,14092
2017-09-06T12:48:48.342Z,13656
2017-09-06T12:49:49.972Z,13304
2017-09-06T12:50:51.599Z,13172
2017-09-06T12:51:53.223Z,12792
2017-09-06T12:52:54.864Z,12472
2017-09-06T12:53:56.500Z,12148
2017-09-06T12:54:58.120Z,12020
2017-09-06T12:55:59.759Z,11120
2017-09-06T12:57:01.385Z,11544
2017-09-06T12:58:03.021Z,11520
2017-09-06T12:59:04.649Z,10656
2017-09-06T13:00:06.271Z,6600
2017-09-06T13:01:07.916Z,8864
2017-09-06T13:02:09.545Z,7160
2017-09-06T13:03:11.170Z,11796
2017-09-06T13:04:12.803Z,9444
2017-09-06T13:05:14.429Z,8176
2017-09-06T13:06:16.064Z,7312
2017-09-06T13:07:17.693Z,8120
2017-09-06T13:08:19.328Z,6796
2017-09-06T13:09:20.951Z,6136
2017-09-06T13:10:22.576Z,6256
2017-09-06T13:11:24.213Z,7296
2017-09-06T13:12:25.834Z,9600
2017-09-06T13:13:27.462Z,11236
2017-09-06T13:14:29.091Z,7952
2017-09-06T13:15:30.716Z,8392
2017-09-06T13:16:32.346Z,8292
2017-09-06T13:17:33.967Z,9648
2017-09-06T13:18:35.603Z,7228
2017-09-06T13:19:37.237Z,9184
2017-09-06T13:20:38.854Z,9056
2017-09-06T13:21:40.477Z,8464
2017-09-06T13:22:42.109Z,7856
2017-09-06T13:23:43.745Z,8728
2017-09-06T13:24:45.369Z,8764
2017-09-06T13:25:46.990Z,7732
2017-09-06T13:26:48.618Z,7412
2017-09-06T13:27:50.244Z,7924
2017-09-06T13:28:51.867Z,8328
2017-09-06T13:29:53.493Z,8704
2017-09-06T13:30:55.126Z,8164
2017-09-06T13:31:56.764Z,8696
2017-09-06T13:32:58.380Z,7944
2017-09-06T13:34:00.006Z,6296
2017-09-06T13:35:01.638Z,6472
2017-09-06T13:36:03.260Z,6312
2017-09-06T13:37:04.885Z,5680
2017-09-06T13:38:06.510Z,6432
2017-09-06T13:39:08.146Z,7100
2017-09-06T13:40:09.766Z,8172
2017-09-06T13:41:11.396Z,7356
2017-09-06T13:42:13.024Z,6660
2017-09-06T13:43:14.646Z,6444
2017-09-06T13:44:16.273Z,6220
2017-09-06T13:45:17.904Z,5952
2017-09-06T13:46:19.542Z,5900
2017-09-06T13:47:21.159Z,5864
2017-09-06T13:48:22.787Z,6056
2017-09-06T13:49:24.421Z,5944
2017-09-06T13:50:26.040Z,5844
2017-09-06T13:51:27.666Z,5532
2017-09-06T13:52:29.306Z,5756
2017-09-06T13:53:30.935Z,6196
2017-09-06T13:54:32.557Z,6180
2017-09-06T13:55:34.176Z,6832
2017-09-06T13:56:35.811Z,7424
2017-09-06T13:57:37.436Z,7864
2017-09-06T13:58:39.060Z,8552
2017-09-06T13:59:40.683Z,9224
2017-09-06T14:00:42.311Z,9272
2017-09-06T14:01:43.932Z,9000
2017-09-06T14:02:45.556Z,9140
2017-09-06T14:03:47.179Z,9748
2017-09-06T14:04:48.806Z,9524
2017-09-06T14:05:50.433Z,9048
2017-09-06T14:06:52.063Z,8416
2017-09-06T14:07:53.691Z,7916
2017-09-06T14:08:55.308Z,7400
2017-09-06T14:09:56.942Z,6868
2017-09-06T14:10:58.568Z,6384
2017-09-06T14:12:00.203Z,6252
2017-09-06T14:13:01.830Z,6028
2017-09-06T14:14:03.465Z,5760
2017-09-06T14:15:05.087Z,5772
2017-09-06T14:16:06.710Z,5648
2017-09-06T14:17:08.346Z,5572
2017-09-06T14:18:09.967Z,5460
2017-09-06T14:19:11.591Z,5280
2017-09-06T14:20:13.219Z,5132
2017-09-06T14:21:14.841Z,5056
2017-09-06T14:22:16.481Z,4784
2017-09-06T14:23:18.108Z,4384
2017-09-06T14:24:19.728Z,4112
2017-09-06T14:25:21.351Z,4196
2017-09-06T14:26:22.981Z,4320
2017-09-06T14:27:24.614Z,4476
2017-09-06T14:28:26.237Z,4668
2017-09-06T14:29:27.863Z,5028
2017-09-06T14:30:29.497Z,5768
2017-09-06T14:31:31.123Z,6944
2017-09-06T14:32:32.745Z,7976
2017-09-06T14:33:34.367Z,7428
2017-09-06T14:34:36.002Z,6720
2017-09-06T14:35:37.629Z,6040
2017-09-06T14:36:39.255Z,5492
2017-09-06T14:37:40.892Z,4852
2017-09-06T14:38:42.509Z,4108
2017-09-06T14:39:44.136Z,3556
2017-09-06T14:40:45.762Z,2880
2017-09-06T14:41:47.390Z,2136
2017-09-06T14:42:49.011Z,1568
2017-09-06T14:43:50.635Z,1240
2017-09-06T14:44:52.265Z,1228
2017-09-06T14:45:53.890Z,1328
2017-09-06T14:46:55.518Z,1388
2017-09-06T14:47:57.141Z,1344
2017-09-06T14:48:58.765Z,1496
2017-09-06T14:50:00.391Z,1576
2017-09-06T14:51:02.021Z,1488
2017-09-06T14:52:03.652Z,1272